Time;durP1;ratioP1;P1;durP2;ratioP2;P2;SDS_P1;SDS_P2;PMS_P1;PMS_P2;Temp;Humidity;BMP_temperature;BMP_pressure;BME280_temperature;BME280_humidity;BME280_pressure;Samples;Min_cycle;Max_cycle;Signal;HPM_P1;HPM_P2
2022/01/12 00:01:45;;;;;;;16.55;7.12;;;;;;;-3.17;61.65;101485.09;4437827;32;33343;-65
2022/01/12 00:04:13;;;;;;;19.00;7.70;;;;;;;-3.73;63.19;101487.31;4439095;32;33334;-66
2022/01/12 00:06:40;;;;;;;17.33;7.28;;;;;;;-3.70;63.41;101487.72;4447352;32;34378;-65
2022/01/12 00:09:08;;;;;;;16.60;6.68;;;;;;;-3.45;62.86;101481.59;4442382;32;34832;-65
2022/01/12 00:11:36;;;;;;;15.15;6.87;;;;;;;-3.10;61.03;101482.59;4439469;32;33558;-65
2022/01/12 00:14:05;;;;;;;13.77;6.40;;;;;;;-2.99;60.31;101484.87;4436002;32;33325;-65
2022/01/12 00:16:33;;;;;;;17.00;7.05;;;;;;;-2.95;60.62;101483.63;4428335;32;34440;-65
2022/01/12 00:19:01;;;;;;;14.15;7.43;;;;;;;-3.38;61.33;101486.75;4441026;32;33908;-65
2022/01/12 00:21:29;;;;;;;14.77;6.10;;;;;;;-2.99;59.31;101482.34;4444746;32;33722;-65
2022/01/12 00:23:56;;;;;;;15.15;5.72;;;;;;;-3.69;63.68;101484.47;4442950;32;34212;-65
2022/01/12 00:34:37;;;;;;;14.20;6.90;;;;;;;-2.30;57.19;101497.56;4442210;32;33446;-65
2022/01/12 00:37:05;;;;;;;17.30;7.18;;;;;;;-3.32;60.94;101499.28;4438413;32;34612;-65
2022/01/12 00:39:32;;;;;;;18.35;7.32;;;;;;;-2.50;58.38;101499.28;4435802;32;33712;-64
2022/01/12 00:42:00;;;;;;;20.33;9.10;;;;;;;-1.95;57.41;101498.44;4437923;32;33888;-65
2022/01/12 00:44:35;;;;;;;19.70;8.98;;;;;;;-1.74;56.27;101504.25;4436242;32;33743;-65
2022/01/12 00:47:03;;;;;;;21.17;9.60;;;;;;;-2.52;58.63;101514.31;4439229;32;33575;-65
2022/01/12 00:49:31;;;;;;;19.70;8.95;;;;;;;-3.31;61.56;101515.37;4431739;32;33878;-65
2022/01/12 00:51:58;;;;;;;19.33;8.05;;;;;;;-3.25;61.29;101516.16;4445362;32;33133;-65
2022/01/12 00:54:26;;;;;;;17.08;7.82;;;;;;;-2.03;58.01;101509.25;4440839;32;33528;-65
2022/01/12 00:56:54;;;;;;;18.27;9.15;;;;;;;-1.71;56.78;101505.53;4436020;32;33660;-65
2022/01/12 00:59:22;;;;;;;23.95;8.52;;;;;;;-2.69;60.08;101512.22;4441840;32;33684;-65
2022/01/12 01:01:56;;;;;;;20.55;8.95;;;;;;;-3.66;63.07;101509.28;4436749;32;34279;-65
2022/01/12 01:04:25;;;;;;;19.73;9.18;;;;;;;-3.98;64.35;101518.69;4437882;32;33420;-65
2022/01/12 01:06:54;;;;;;;18.17;8.65;;;;;;;-4.26;65.32;101520.19;4438930;32;33612;-65
2022/01/12 01:09:23;;;;;;;18.60;8.27;;;;;;;-4.03;64.77;101515.59;4435260;32;34390;-65
2022/01/12 01:11:52;;;;;;;18.45;8.50;;;;;;;-3.95;64.12;101508.97;4433353;32;34205;-65
2022/01/12 01:14:33;;;;;;;16.65;7.95;;;;;;;-2.90;61.16;101514.63;4443726;32;33388;-65
2022/01/12 01:27:52;;;;;;;20.67;8.88;;;;;;;-4.64;66.53;101528.69;4442682;32;34644;-65
2022/01/12 01:30:20;;;;;;;21.15;9.50;;;;;;;-4.48;66.21;101521.53;4436744;32;34553;-65
2022/01/12 01:32:49;;;;;;;26.92;9.15;;;;;;;-4.03;64.84;101520.66;4438466;32;33920;-65
2022/01/12 01:35:18;;;;;;;21.10;9.18;;;;;;;-3.45;62.92;101519.62;4439649;32;33407;-65
2022/01/12 01:37:46;;;;;;;17.50;7.97;;;;;;;-4.15;65.73;101525.03;4440156;32;34019;-65
2022/01/12 01:40:14;;;;;;;20.10;8.23;;;;;;;-3.26;62.52;101520.31;4438641;32;34497;-64
2022/01/12 01:43:08;;;;;;;20.37;8.73;;;;;;;-2.47;59.81;101518.34;4447424;32;33650;-65
2022/01/12 01:53:57;;;;;;;22.05;8.90;;;;;;;-2.67;58.60;101528.53;4444412;32;33957;-65
2022/01/12 01:56:24;;;;;;;19.80;8.63;;;;;;;-2.13;56.35;101526.66;4443921;32;34229;-65
2022/01/12 01:58:53;;;;;;;16.92;7.45;;;;;;;-2.18;56.20;101531.16;4439840;32;34312;-65
2022/01/12 02:01:22;;;;;;;19.25;8.02;;;;;;;-3.49;60.55;101537.69;4441719;32;34385;-64
2022/01/12 02:03:52;;;;;;;24.77;9.50;;;;;;;-4.67;64.80;101548.53;4442758;32;33907;-65
2022/01/12 02:06:21;;;;;;;21.00;9.30;;;;;;;-4.10;64.86;101542.44;4444699;32;33376;-65
2022/01/12 02:08:49;;;;;;;21.20;8.98;;;;;;;-4.10;64.08;101534.84;4439644;32;33815;-64
2022/01/12 02:11:25;;;;;;;22.17;9.98;;;;;;;-4.19;64.94;101543.06;4437218;32;34513;-65
2022/01/12 02:13:55;;;;;;;23.48;10.48;;;;;;;-3.47;62.65;101536.25;4432856;32;34626;-65
2022/01/12 02:16:31;;;;;;;24.98;11.18;;;;;;;-2.94;61.04;101545.37;4440256;32;34234;-65
2022/01/12 02:35:47;;;;;;;24.63;10.45;;;;;;;-4.70;67.74;101553.19;4433886;32;33438;-65
2022/01/12 02:41:05;;;;;;;29.75;10.35;;;;;;;-3.67;63.32;101537.84;4438588;32;34759;-65
2022/01/12 02:54:35;;;;;;;24.12;10.45;;;;;;;-2.89;62.01;101539.28;4437962;32;34716;-65
2022/01/12 02:57:04;;;;;;;24.23;11.20;;;;;;;-3.04;61.93;101549.28;4437635;32;34389;-65
2022/01/12 02:59:32;;;;;;;26.08;11.07;;;;;;;-2.67;61.58;101548.81;4438936;32;34244;-65
2022/01/12 03:02:19;;;;;;;27.95;11.80;;;;;;;-2.91;62.05;101551.75;4423124;32;33398;-64
2022/01/12 03:07:42;;;;;;;30.75;12.52;;;;;;;-2.94;62.54;101550.44;4425591;32;101225;-64
2022/01/12 03:10:13;;;;;;;26.95;12.25;;;;;;;-3.07;63.23;101550.50;4437403;32;33079;-65
2022/01/12 03:12:45;;;;;;;36.97;12.40;;;;;;;-2.58;61.84;101549.97;4440024;32;33455;-65
2022/01/12 03:15:13;;;;;;;29.77;13.40;;;;;;;-2.61;61.63;101552.16;4437085;32;34567;-65
2022/01/12 03:17:40;;;;;;;27.87;11.20;;;;;;;-3.25;62.99;101556.72;4438714;32;34154;-65
2022/01/12 03:20:10;;;;;;;29.70;12.25;;;;;;;-3.74;65.17;101556.41;4441768;32;33760;-65
2022/01/12 03:22:38;;;;;;;28.92;12.98;;;;;;;-4.40;68.08;101557.97;4438261;32;34506;-65
2022/01/12 03:25:08;;;;;;;26.95;12.13;;;;;;;-4.31;67.26;101561.66;4440244;32;34444;-65
2022/01/12 03:27:37;;;;;;;27.83;12.45;;;;;;;-3.92;66.80;101560.03;4437503;32;33441;-64
2022/01/12 03:30:07;;;;;;;31.58;11.70;;;;;;;-4.75;69.67;101570.28;4438094;32;33307;-65
2022/01/12 03:32:47;;;;;;;27.42;11.45;;;;;;;-3.96;67.54;101566.31;4421521;32;33946;-65
2022/01/12 03:35:36;;;;;;;27.05;11.98;;;;;;;-4.50;68.84;101572.59;4440330;32;33587;-64
2022/01/12 03:38:22;;;;;;;28.08;10.52;;;;;;;-4.07;66.85;101565.63;4437683;32;33699;-64
2022/01/12 03:40:50;;;;;;;24.50;11.15;;;;;;;-4.31;68.46;101566.72;4441358;32;34209;-64
2022/01/12 03:43:19;;;;;;;26.00;12.30;;;;;;;-3.77;66.90;101559.47;4436872;32;33960;-64
2022/01/12 03:45:48;;;;;;;33.95;12.77;;;;;;;-4.10;67.92;101562.66;4427652;32;32723;-64
2022/01/12 03:48:17;;;;;;;29.23;12.57;;;;;;;-5.20;72.28;101554.91;4441624;32;34074;-64
2022/01/12 03:50:45;;;;;;;31.87;11.77;;;;;;;-4.50;69.80;101557.44;4435642;32;33607;-64
2022/01/12 03:53:13;;;;;;;29.40;12.07;;;;;;;-3.90;67.54;101550.06;4424975;32;32367;-64
2022/01/12 03:55:43;;;;;;;30.35;12.35;;;;;;;-4.48;69.32;101562.00;4438310;32;33729;-65
2022/01/12 03:58:11;;;;;;;29.20;12.27;;;;;;;-5.06;71.03;101572.87;4436406;32;34590;-64
2022/01/12 04:00:39;;;;;;;32.63;13.00;;;;;;;-5.31;72.41;101570.22;4436753;32;33396;-64
2022/01/12 04:03:08;;;;;;;30.42;12.75;;;;;;;-5.28;71.83;101578.25;4437083;32;33451;-64
2022/01/12 04:08:19;;;;;;;27.25;11.65;;;;;;;-5.24;72.10;101580.47;4437566;32;34101;-65
2022/01/12 04:10:52;;;;;;;26.83;12.82;;;;;;;-5.69;73.12;101578.59;4426227;32;33552;-64
2022/01/12 04:13:22;;;;;;;27.40;11.70;;;;;;;-6.10;73.49;101583.91;4423291;32;32631;-65
2022/01/12 04:15:58;;;;;;;24.02;11.18;;;;;;;-5.77;73.11;101577.53;4422542;32;33296;-65
2022/01/12 04:18:26;;;;;;;26.98;11.45;;;;;;;-5.51;71.89;101570.06;4431264;32;33714;-65
2022/01/12 04:20:57;;;;;;;25.75;10.52;;;;;;;-5.68;71.45;101570.28;4434248;32;33494;-64
2022/01/12 04:23:25;;;;;;;22.08;9.98;;;;;;;-4.61;67.69;101564.53;4435116;32;32165;-64
2022/01/12 04:25:58;;;;;;;21.42;9.25;;;;;;;-5.67;70.83;101572.13;4435382;32;34034;-65
2022/01/12 04:28:28;;;;;;;20.55;9.85;;;;;;;-5.93;71.29;101577.94;4425467;32;33875;-64
2022/01/12 04:30:57;;;;;;;22.92;9.43;;;;;;;-5.92;69.56;101573.81;4420748;32;31278;-64
2022/01/12 04:33:26;;;;;;;27.05;10.38;;;;;;;-4.94;67.39;101577.03;4436260;32;33557;-65
2022/01/12 04:35:55;;;;;;;26.65;11.12;;;;;;;-4.60;66.35;101576.47;4436712;32;34674;-65
2022/01/12 04:38:27;;;;;;;25.77;10.52;;;;;;;-4.27;66.78;101574.03;4441667;32;33928;-65
2022/01/12 04:40:55;;;;;;;26.58;11.25;;;;;;;-4.13;66.01;101574.91;4437980;32;34218;-65
2022/01/12 04:43:25;;;;;;;27.00;12.50;;;;;;;-4.21;65.95;101566.31;4436975;32;33507;-65
2022/01/12 04:50:54;;;;;;;29.70;12.30;;;;;;;-3.96;65.79;101578.03;4444210;32;34549;-65
2022/01/12 04:53:23;;;;;;;29.73;13.20;;;;;;;-3.68;65.40;101581.63;4438754;32;32372;-64
2022/01/12 04:55:53;;;;;;;31.70;14.15;;;;;;;-3.95;66.42;101577.31;4438360;32;33904;-64
2022/01/12 04:58:21;;;;;;;32.13;14.13;;;;;;;-5.41;71.24;101586.69;4438243;32;34142;-64
2022/01/12 05:00:51;;;;;;;34.55;13.65;;;;;;;-5.99;74.86;101592.28;4434760;32;33875;-64
2022/01/12 05:06:37;;;;;;;30.37;13.25;;;;;;;-6.19;75.68;101604.62;4441853;32;33926;-64
2022/01/12 05:14:24;;;;;;;27.25;9.52;;;;;;;-3.77;65.08;101597.47;4433299;32;34034;-65
2022/01/12 05:16:53;;;;;;;25.80;11.35;;;;;;;-3.96;64.53;101608.41;4436044;32;33652;-65
2022/01/12 05:19:21;;;;;;;25.15;11.52;;;;;;;-4.05;64.56;101604.69;4430551;32;33981;-64
2022/01/12 05:21:49;;;;;;;27.80;12.05;;;;;;;-3.84;64.58;101599.87;4434998;32;31994;-65
2022/01/12 05:24:18;;;;;;;29.40;11.20;;;;;;;-3.69;64.00;101594.97;4435178;32;33935;-65
2022/01/12 05:26:46;;;;;;;28.90;11.88;;;;;;;-4.17;65.60;101604.91;4445087;32;34606;-64
2022/01/12 05:29:13;;;;;;;26.00;11.52;;;;;;;-5.49;70.93;101607.44;4432621;32;32363;-64
2022/01/12 05:31:41;;;;;;;29.75;12.43;;;;;;;-6.16;73.52;101615.16;4441233;32;33995;-64
2022/01/12 05:34:10;;;;;;;29.90;13.27;;;;;;;-5.99;74.56;101612.47;4434354;32;33546;-64
2022/01/12 05:36:38;;;;;;;34.05;15.63;;;;;;;-6.30;74.87;101624.91;4435744;32;34345;-64
2022/01/12 05:39:07;;;;;;;35.28;14.65;;;;;;;-6.49;76.52;101618.00;4450039;32;34559;-64
2022/01/12 05:41:35;;;;;;;34.17;15.45;;;;;;;-6.10;75.62;101622.69;4437368;32;33529;-64
2022/01/12 05:44:08;;;;;;;31.50;12.57;;;;;;;-6.28;76.36;101610.91;4432688;32;33764;-65
2022/01/12 05:46:39;;;;;;;33.47;13.95;;;;;;;-5.41;73.14;101609.44;4427845;32;34548;-66
2022/01/12 05:51:56;;;;;;;35.72;15.40;;;;;;;-6.22;75.57;101616.84;4427561;32;33434;-64
2022/01/12 05:54:24;;;;;;;34.92;13.62;;;;;;;-5.74;73.55;101620.84;4436899;32;34014;-65
2022/01/12 05:56:52;;;;;;;27.62;12.20;;;;;;;-6.39;75.03;101626.19;4440498;32;34426;-65
2022/01/12 05:59:20;;;;;;;34.13;13.48;;;;;;;-5.86;72.77;101631.78;4438904;32;34547;-66
2022/01/12 06:01:48;;;;;;;26.00;11.10;;;;;;;-6.13;73.36;101620.63;4435035;32;34414;-64
2022/01/12 06:04:17;;;;;;;23.85;11.38;;;;;;;-6.24;73.77;101627.38;4433381;32;33629;-64
2022/01/12 06:06:45;;;;;;;25.10;11.43;;;;;;;-6.42;74.10;101625.72;4438470;32;34633;-65
2022/01/12 06:09:13;;;;;;;29.10;10.60;;;;;;;-6.57;74.55;101632.03;4438271;32;33774;-65
2022/01/12 06:11:42;;;;;;;28.50;11.52;;;;;;;-6.63;74.62;101633.69;4420212;32;31613;-64
2022/01/12 06:14:12;;;;;;;30.83;12.50;;;;;;;-6.45;74.62;101637.91;4435605;32;34649;-65
2022/01/12 06:16:39;;;;;;;47.38;14.25;;;;;;;-6.19;73.59;101642.47;4438660;32;33916;-64
2022/01/12 06:19:07;;;;;;;29.87;13.07;;;;;;;-6.27;73.97;101653.09;4440700;32;33890;-66
2022/01/12 06:21:37;;;;;;;29.12;12.95;;;;;;;-6.46;74.73;101656.25;4436259;32;33119;-67
2022/01/12 06:24:05;;;;;;;33.08;13.55;;;;;;;-6.26;74.22;101664.09;4438463;32;34495;-65
2022/01/12 06:26:36;;;;;;;28.45;12.25;;;;;;;-6.41;73.71;101662.84;4437077;32;33537;-65
2022/01/12 06:29:23;;;;;;;33.70;14.18;;;;;;;-6.30;73.85;101657.69;4434236;32;35207;-65
2022/01/12 06:31:54;;;;;;;34.45;14.98;;;;;;;-6.51;74.03;101663.16;4436025;32;34470;-65
2022/01/12 06:34:23;;;;;;;33.35;13.82;;;;;;;-6.44;74.01;101662.44;4407207;32;33635;-65
2022/01/12 06:36:53;;;;;;;32.47;14.57;;;;;;;-6.39;74.46;101664.00;4435119;32;32962;-65
2022/01/12 06:39:23;;;;;;;40.42;15.07;;;;;;;-4.87;69.37;101664.69;4435634;32;34191;-64
2022/01/12 06:41:54;;;;;;;27.55;12.27;;;;;;;-4.79;66.58;101665.72;4435591;32;32997;-65
2022/01/12 06:44:22;;;;;;;31.52;12.15;;;;;;;-5.80;68.94;101660.37;4436459;32;32368;-65
2022/01/12 06:46:51;;;;;;;29.58;13.75;;;;;;;-6.45;71.53;101670.66;4426847;32;34142;-65
2022/01/12 06:49:20;;;;;;;29.02;11.82;;;;;;;-6.15;70.93;101676.59;4429146;32;34572;-65
2022/01/12 06:51:49;;;;;;;22.92;10.13;;;;;;;-6.16;70.34;101678.22;4435475;32;34341;-65
2022/01/12 06:54:17;;;;;;;29.63;10.73;;;;;;;-5.52;67.04;101680.28;4434890;32;34597;-65
2022/01/12 06:56:45;;;;;;;21.45;9.98;;;;;;;-6.53;69.91;101683.12;4428197;32;33914;-65
2022/01/12 06:59:14;;;;;;;23.23;10.07;;;;;;;-6.80;71.43;101684.22;4420201;32;34173;-65
2022/01/12 07:01:42;;;;;;;26.50;10.30;;;;;;;-6.98;71.98;101688.47;4419991;32;33629;-65
2022/01/12 07:04:11;;;;;;;23.40;11.60;;;;;;;-6.72;71.78;101693.81;4417867;32;33592;-65
2022/01/12 07:06:39;;;;;;;26.40;11.10;;;;;;;-6.97;72.47;101684.34;4422565;32;34451;-64
2022/01/12 07:09:08;;;;;;;25.50;11.50;;;;;;;-6.98;72.82;101698.53;4417327;32;34121;-65
2022/01/12 07:11:37;;;;;;;26.08;12.05;;;;;;;-6.50;72.38;101696.88;4416744;32;33446;-65
2022/01/12 07:14:06;;;;;;;29.63;15.10;;;;;;;-6.64;73.51;101693.28;4421825;32;33652;-65
2022/01/12 07:16:36;;;;;;;33.58;16.92;;;;;;;-6.79;75.01;101701.19;4420663;32;34439;-65
2022/01/12 07:19:04;;;;;;;27.58;11.75;;;;;;;-6.43;73.87;101704.56;4422933;32;34528;-65
2022/01/12 07:21:31;;;;;;;28.62;11.95;;;;;;;-5.85;72.56;101712.75;4419788;32;33445;-65
2022/01/12 07:23:59;;;;;;;34.42;14.38;;;;;;;-5.70;72.54;101710.53;4416526;32;34249;-65
2022/01/12 07:26:27;;;;;;;34.28;15.00;;;;;;;-6.03;73.14;101715.25;4418573;32;33671;-65
2022/01/12 07:28:56;;;;;;;30.35;13.82;;;;;;;-6.18;74.22;101724.09;4419924;32;34489;-65
2022/01/12 07:31:25;;;;;;;33.80;14.30;;;;;;;-5.49;72.65;101726.13;4420439;32;32828;-66
2022/01/12 07:33:56;;;;;;;31.67;13.18;;;;;;;-4.84;69.72;101715.66;4420371;32;34621;-65
2022/01/12 07:36:24;;;;;;;39.50;16.80;;;;;;;-4.42;69.29;101723.81;4420077;32;33666;-65
2022/01/12 07:38:55;;;;;;;35.70;15.18;;;;;;;-5.69;72.62;101727.50;4418760;32;34227;-65
2022/01/12 07:41:24;;;;;;;37.15;16.73;;;;;;;-5.57;74.02;101727.59;4404829;32;33255;-65
2022/01/12 07:43:53;;;;;;;40.75;17.55;;;;;;;-5.59;73.48;101728.09;4415730;32;33840;-65
2022/01/12 07:46:21;;;;;;;42.42;16.73;;;;;;;-5.94;75.14;101726.59;4421221;32;33674;-65
2022/01/12 07:48:49;;;;;;;36.88;16.62;;;;;;;-5.54;74.07;101729.66;4422311;32;33809;-65
2022/01/12 07:51:16;;;;;;;36.67;15.50;;;;;;;-5.31;73.42;101734.41;4420061;32;33566;-65
2022/01/12 07:53:45;;;;;;;39.45;15.70;;;;;;;-4.69;71.14;101736.13;4421687;32;33899;-65
2022/01/12 07:56:13;;;;;;;42.53;16.95;;;;;;;-4.86;71.85;101732.25;4419328;32;33828;-65
2022/01/12 07:58:41;;;;;;;36.88;14.75;;;;;;;-4.08;68.92;101743.47;4420967;32;34032;-65
2022/01/12 08:01:12;;;;;;;30.40;13.32;;;;;;;-4.50;68.93;101740.47;4420620;32;33838;-65
2022/01/12 08:03:42;;;;;;;32.83;13.20;;;;;;;-3.59;66.70;101750.91;4419518;32;33402;-66
2022/01/12 08:06:10;;;;;;;30.35;13.80;;;;;;;-3.12;64.59;101742.59;4415489;32;33145;-66
2022/01/12 08:08:38;;;;;;;30.55;13.25;;;;;;;-2.85;63.88;101741.81;4415394;32;34593;-66
2022/01/12 08:11:07;;;;;;;31.23;13.25;;;;;;;-2.85;64.21;101740.19;4409570;32;33290;-65
2022/01/12 08:13:34;;;;;;;30.80;13.85;;;;;;;-2.69;63.70;101737.97;4421754;32;33427;-66
2022/01/12 08:16:02;;;;;;;28.95;13.50;;;;;;;-2.32;63.16;101739.22;4413291;32;34213;-66
2022/01/12 08:18:31;;;;;;;30.65;13.55;;;;;;;-2.09;61.96;101737.94;4416127;32;34843;-66
2022/01/12 08:20:59;;;;;;;29.25;12.85;;;;;;;-3.31;66.44;101743.47;4419583;32;33415;-65
2022/01/12 08:23:27;;;;;;;29.65;13.75;;;;;;;-3.50;66.77;101741.03;4419852;32;33535;-66
2022/01/12 08:25:56;;;;;;;33.85;13.98;;;;;;;-3.08;65.85;101743.91;4401497;32;32715;-66
2022/01/12 08:28:24;;;;;;;28.62;11.45;;;;;;;-3.07;65.05;101741.59;4415233;32;34258;-66
2022/01/12 08:30:52;;;;;;;26.33;13.20;;;;;;;-2.90;65.13;101756.41;4396413;32;31962;-66
2022/01/12 08:33:21;;;;;;;27.45;11.60;;;;;;;-2.66;64.61;101752.69;4419064;32;34834;-66
2022/01/12 08:35:49;;;;;;;22.62;11.27;;;;;;;-2.79;64.55;101760.34;4415548;32;33620;-65
2022/01/12 08:38:22;;;;;;;29.37;13.02;;;;;;;-3.55;67.55;101772.47;4414466;32;34684;-65
2022/01/12 08:40:50;;;;;;;27.33;11.23;;;;;;;-3.76;67.87;101774.00;4414741;32;33353;-65
2022/01/12 08:43:18;;;;;;;29.20;13.20;;;;;;;-3.47;67.79;101779.47;4413698;32;34214;-65
2022/01/12 08:45:46;;;;;;;25.27;12.23;;;;;;;-3.78;68.25;101775.41;4418554;32;33498;-66
2022/01/12 08:48:14;;;;;;;29.77;11.40;;;;;;;-3.28;66.97;101776.81;4419929;32;33789;-65
2022/01/12 08:50:43;;;;;;;28.30;12.27;;;;;;;-3.03;66.74;101764.09;4411556;32;34192;-66
2022/01/12 08:53:12;;;;;;;35.08;14.80;;;;;;;-3.06;66.41;101761.12;4414444;32;34948;-66
2022/01/12 08:55:40;;;;;;;30.60;14.05;;;;;;;-2.32;64.53;101762.97;4413905;32;33876;-66
2022/01/12 08:58:08;;;;;;;33.47;14.63;;;;;;;-2.72;65.89;101762.03;4421198;32;33986;-65
2022/01/12 09:00:37;;;;;;;32.30;13.27;;;;;;;-3.16;67.52;101764.09;4414133;32;34177;-65
2022/01/12 09:03:05;;;;;;;34.60;13.90;;;;;;;-2.59;65.88;101765.44;4410600;32;33000;-66
2022/01/12 09:05:35;;;;;;;35.40;13.45;;;;;;;-1.82;63.58;101759.91;4414299;32;33888;-65
2022/01/12 09:08:06;;;;;;;27.37;13.13;;;;;;;-1.65;62.89;101759.47;4414824;32;34205;-65
2022/01/12 09:10:34;;;;;;;27.15;11.60;;;;;;;-1.52;62.95;101760.28;4415110;32;33490;-66
2022/01/12 09:13:03;;;;;;;29.33;11.88;;;;;;;-2.27;65.30;101754.31;4412847;32;33829;-65
2022/01/12 09:15:32;;;;;;;22.87;10.18;;;;;;;-1.30;62.21;101745.13;4419612;32;33725;-66
2022/01/12 09:18:00;;;;;;;25.00;11.57;;;;;;;-1.89;63.85;101748.06;4406911;32;34015;-67
2022/01/12 09:20:28;;;;;;;27.37;11.18;;;;;;;-2.37;64.84;101758.94;4415928;32;33534;-66
2022/01/12 09:22:57;;;;;;;25.55;11.57;;;;;;;-2.59;65.32;101752.75;4413642;32;34881;-65
2022/01/12 09:25:25;;;;;;;23.15;10.35;;;;;;;-2.88;67.28;101751.53;4414867;32;34865;-66
2022/01/12 09:27:54;;;;;;;29.37;12.35;;;;;;;-2.10;65.80;101745.37;4414836;32;33577;-68
2022/01/12 09:30:23;;;;;;;21.87;10.32;;;;;;;-2.57;66.13;101756.38;4422018;32;33267;-65
2022/01/12 09:32:50;;;;;;;29.75;11.50;;;;;;;-2.45;66.09;101754.53;4423419;32;34727;-67
2022/01/12 09:35:22;;;;;;;24.30;10.65;;;;;;;-1.71;64.40;101753.62;4415959;32;33977;-65
2022/01/12 09:37:50;;;;;;;28.02;10.18;;;;;;;-1.60;62.76;101758.41;4420303;32;32337;-68
2022/01/12 09:40:18;;;;;;;23.02;10.45;;;;;;;-1.78;62.56;101741.78;4421112;32;34108;-65
2022/01/12 09:42:48;;;;;;;25.42;10.45;;;;;;;-1.51;61.44;101743.38;4418990;32;33571;-65
2022/01/12 09:45:18;;;;;;;30.77;11.02;;;;;;;-1.13;61.39;101737.91;4416519;32;34693;-65
2022/01/12 09:47:48;;;;;;;24.92;10.43;;;;;;;-0.65;59.82;101749.66;4421306;32;34428;-66
2022/01/12 09:50:21;;;;;;;23.55;10.35;;;;;;;-1.44;63.04;101757.03;4420169;32;32696;-65
2022/01/12 09:52:50;;;;;;;23.17;10.70;;;;;;;-1.34;61.85;101758.19;4416433;32;32338;-65
2022/01/12 09:55:20;;;;;;;26.33;10.93;;;;;;;-1.73;62.37;101760.16;4422475;32;33739;-65
2022/01/12 09:57:49;;;;;;;29.70;10.52;;;;;;;-1.91;63.46;101758.75;4418542;32;33763;-65
2022/01/12 10:00:23;;;;;;;27.87;10.85;;;;;;;-1.60;63.01;101758.41;4419296;32;34175;-66
2022/01/12 10:02:52;;;;;;;26.33;11.68;;;;;;;-1.32;61.96;101751.66;4417617;32;33982;-66
2022/01/12 10:05:29;;;;;;;28.90;12.70;;;;;;;-1.21;62.16;101758.97;4417144;32;34510;-65
2022/01/12 10:08:13;;;;;;;24.83;11.98;;;;;;;-2.07;64.73;101761.00;4410724;32;34654;-67
2022/01/12 10:10:48;;;;;;;26.75;10.38;;;;;;;-1.87;63.87;101756.78;4418103;32;32747;-67
2022/01/12 10:13:23;;;;;;;23.33;11.27;;;;;;;-1.41;62.68;101761.56;4390885;32;34541;-66
2022/01/12 10:15:52;;;;;;;25.55;10.40;;;;;;;-1.24;61.51;101750.94;4422546;32;34528;-66
2022/01/12 10:18:25;;;;;;;27.08;11.70;;;;;;;-1.21;61.10;101757.31;4416710;32;33685;-66
2022/01/12 10:20:54;;;;;;;22.40;12.18;;;;;;;-1.14;61.41;101759.00;4404878;32;34348;-66
2022/01/12 10:23:23;;;;;;;32.55;13.10;;;;;;;-1.73;62.71;101758.50;4415313;32;33745;-68
2022/01/12 10:25:52;;;;;;;26.45;11.52;;;;;;;-1.28;61.80;101748.75;4422788;32;33437;-66
2022/01/12 10:28:25;;;;;;;28.45;12.10;;;;;;;-0.73;60.67;101750.38;4422675;32;34494;-65
2022/01/12 10:30:56;;;;;;;30.83;12.95;;;;;;;-1.15;60.66;101757.16;4418932;32;33883;-66
2022/01/12 10:33:26;;;;;;;28.55;12.23;;;;;;;-0.87;60.54;101745.25;4408100;32;34462;-65
2022/01/12 10:35:58;;;;;;;26.85;11.12;;;;;;;-1.49;61.56;101758.09;4422069;32;32988;-70
2022/01/12 10:38:28;;;;;;;25.58;10.98;;;;;;;-0.80;59.80;101752.91;4418769;32;32836;-67
2022/01/12 10:41:01;;;;;;;24.85;11.70;;;;;;;-0.52;58.22;101751.13;4422169;32;33369;-66
2022/01/12 10:43:30;;;;;;;27.25;11.80;;;;;;;0.22;56.37;101744.56;4414683;32;34012;-68
2022/01/12 10:46:04;;;;;;;28.52;12.90;;;;;;;-0.18;57.40;101743.31;4419923;32;32412;-66
2022/01/12 10:48:48;;;;;;;24.52;10.82;;;;;;;0.41;55.68;101733.22;4418771;32;34914;-66
2022/01/12 10:51:21;;;;;;;30.27;13.13;;;;;;;0.38;54.56;101732.88;4421723;32;33806;-66
2022/01/12 10:53:52;;;;;;;26.00;10.95;;;;;;;-0.29;56.54;101742.06;4421367;32;33919;-66
2022/01/12 10:56:22;;;;;;;22.33;11.10;;;;;;;-0.53;56.62;101749.31;4421241;32;32332;-66
2022/01/12 10:58:54;;;;;;;25.73;11.73;;;;;;;-0.22;56.59;101739.50;4401581;32;33082;-65
2022/01/12 11:01:28;;;;;;;29.77;11.52;;;;;;;0.30;55.95;101738.72;4419465;32;32417;-65
2022/01/12 11:03:57;;;;;;;25.90;11.38;;;;;;;0.37;54.92;101737.06;4426123;32;33832;-66
2022/01/12 11:06:25;;;;;;;23.05;11.02;;;;;;;0.53;52.90;101729.53;4422655;32;32743;-66
2022/01/12 11:08:55;;;;;;;24.80;11.12;;;;;;;0.37;53.42;101731.06;4409385;32;33847;-66
2022/01/12 11:11:25;;;;;;;32.65;12.50;;;;;;;0.82;52.61;101724.31;4421650;32;33499;-66
2022/01/12 11:13:53;;;;;;;25.02;11.15;;;;;;;0.90;52.20;101728.66;4425162;32;33921;-66
2022/01/12 11:16:27;;;;;;;25.25;10.77;;;;;;;1.11;51.62;101734.38;4413658;32;32255;-66
2022/01/12 11:18:56;;;;;;;26.67;11.75;;;;;;;0.58;53.63;101741.19;4418358;32;34532;-66
2022/01/12 11:22:03;;;;;;;28.42;12.70;;;;;;;0.80;51.95;101730.00;4420521;32;33365;-66
2022/01/12 11:24:32;;;;;;;27.70;12.25;;;;;;;0.29;54.71;101744.53;4386113;32;32393;-66
2022/01/12 11:27:03;;;;;;;24.37;11.68;;;;;;;0.74;53.13;101731.09;4421377;32;33953;-65
2022/01/12 11:29:34;;;;;;;29.98;11.45;;;;;;;1.38;52.10;101722.16;4416007;32;34130;-64
2022/01/12 11:32:08;;;;;;;25.10;11.95;;;;;;;1.02;52.83;101729.13;4418664;32;33450;-65
2022/01/12 11:34:36;;;;;;;27.42;11.95;;;;;;;1.64;51.81;101725.78;4418576;32;33748;-65
2022/01/12 11:37:16;;;;;;;26.67;12.10;;;;;;;1.49;52.28;101731.03;4420080;32;34718;-65
2022/01/12 11:39:47;;;;;;;32.15;12.98;;;;;;;1.50;52.52;101729.38;4406600;32;33864;-69
2022/01/12 11:42:16;;;;;;;23.50;12.93;;;;;;;0.58;54.30;101724.97;4422213;32;34376;-64
2022/01/12 11:44:44;;;;;;;29.95;13.05;;;;;;;0.65;55.75;101724.03;4424767;32;33361;-65
2022/01/12 11:47:13;;;;;;;31.00;13.70;;;;;;;1.30;54.15;101722.94;4420851;32;33856;-65
2022/01/12 11:49:44;;;;;;;33.65;13.57;;;;;;;0.72;55.84;101721.47;4419005;32;33482;-65
2022/01/12 11:52:15;;;;;;;30.90;13.62;;;;;;;1.67;52.36;101711.72;4420557;32;32739;-64
2022/01/12 11:54:47;;;;;;;30.50;13.82;;;;;;;1.45;53.08;101718.66;4420434;32;33527;-65
2022/01/12 11:57:20;;;;;;;31.23;14.20;;;;;;;1.60;52.30;101703.22;4395534;32;33374;-65
2022/01/12 12:00:00;;;;;;;35.72;14.43;;;;;;;1.50;52.18;101702.19;4420357;32;34621;-66
2022/01/12 12:02:40;;;;;;;31.45;14.02;;;;;;;1.63;52.06;101698.44;4407854;32;33638;-65
2022/01/12 12:05:17;;;;;;;35.03;15.63;;;;;;;1.54;51.96;101701.78;4417561;32;34640;-65
2022/01/12 12:07:55;;;;;;;31.92;15.48;;;;;;;1.55;52.19;101715.47;4417764;32;33796;-64
2022/01/12 12:10:37;;;;;;;39.38;16.65;;;;;;;1.85;52.01;101710.28;4407586;32;34552;-64
2022/01/12 12:13:07;;;;;;;37.22;16.10;;;;;;;1.74;51.59;101714.22;4408796;32;33424;-65
2022/01/12 12:15:34;;;;;;;35.00;16.73;;;;;;;1.02;53.58;101707.81;4422131;32;33126;-64
2022/01/12 12:18:06;;;;;;;35.92;16.15;;;;;;;0.75;54.47;101701.37;4414725;32;33515;-64
2022/01/12 12:20:34;;;;;;;37.10;16.58;;;;;;;1.88;51.52;101704.63;4416882;32;33608;-65
2022/01/12 12:23:02;;;;;;;29.75;14.27;;;;;;;1.74;51.62;101700.56;4420271;32;33642;-64
2022/01/12 12:25:32;;;;;;;29.12;13.82;;;;;;;1.79;50.22;101701.03;4419331;32;34514;-66
2022/01/12 12:28:02;;;;;;;32.08;13.40;;;;;;;1.75;50.34;101705.81;4421807;32;32980;-65
2022/01/12 12:30:33;;;;;;;29.17;15.05;;;;;;;2.21;49.28;101704.81;4416225;32;32133;-65
2022/01/12 12:33:11;;;;;;;30.73;14.45;;;;;;;2.37;48.08;101699.69;4414810;32;32794;-65
2022/01/12 12:35:42;;;;;;;37.08;15.82;;;;;;;2.45;48.36;101701.44;4398439;32;33492;-66
2022/01/12 12:38:16;;;;;;;30.85;15.10;;;;;;;1.51;49.99;101713.31;4402576;32;33414;-65
2022/01/12 12:40:48;;;;;;;34.30;13.55;;;;;;;1.74;50.54;101711.66;4415358;32;34699;-66
2022/01/12 12:43:24;;;;;;;34.13;16.35;;;;;;;1.31;51.92;101716.19;4417218;32;33404;-65
2022/01/12 12:46:00;;;;;;;36.13;15.50;;;;;;;2.04;50.04;101715.75;4418254;32;33915;-66